Brewster, WA

12:31 AM PDT en Septiembre 01, 2014 (GMT -0700)
KWABREWS2 | Change Station
CLOSE
Current Station
Estación meteorológica personal
Location: Brewster, WA
Altura: 1004 ft
Estaciones meteorológicas cercanas

Alt 1004 ft 48.15 °N, 119.69 °W | Updated 5 seconds ago

Despejado
Despejado
62.5 ° F
Sensación térmica 62.5 ° F
N
4.0
Viento Variable Viento desde Norte
Gusts 10.0 mph

Hoy
Alta -- | Baja -- ° F
--% Posibilidad de precipitaciones
Ayer
Alta -- | Baja -- ° F
Precip. -- pul
6:17 AM 7:40 PM
Creciente, 38% visible
Presión 29.94 pul
Visibilidad 10.0 Millas
Nubes Despejado
Punto de rocío 38 ° F
Humedad 40%
Precipitaciones 0.00 pul
Espesor de la nieve No disponible.
UV 0.0 de una escala de 12
Polen 6.20 de una escala de 12
Calidad del aire No disponible.
Flu Activity No disponible.
METAR KOMK 010653Z AUTO 34008KT 10SM CLR 16/06 A2995 RMK AO2 SLP138 T01560056

More Conditions Fewer Conditions

Presión 29.94 pul
Visibilidad 10.0 Millas
Nubes Despejado
Punto de rocío 38 ° F
Humedad 40%
Precipitaciones 0.00 pul
Espesor de la nieve No disponible.
UV 0.0 de una escala de 12
Polen 6.20 de una escala de 12
Calidad del aire No disponible.
Flu Activity No disponible.
METAR KOMK 010653Z AUTO 34008KT 10SM CLR 16/06 A2995 RMK AO2 SLP138 T01560056

More Conditions Fewer Conditions

10-Day Weather Forecast

Almanac

Astronomía

Sep. 01, 2014 Salida Puesta
Hora real 6:17 AM PDT 7:40 PM PDT
Crepúsculo civil 5:44 AM PDT 8:12 PM PDT
Crepúsculo náutico 5:05 AM PDT 8:51 PM PDT
Crepúsculo astronómico 4:23 AM PDT 9:33 PM PDT
Luna 1:39 PM PDT 11:13 PM PDT
Horas de luz 14h 27m
Horas de luz
13h 23m
Tomorrow will be 3m 24s shorter.
Creciente, 38% of the Moon is Illuminated
Hoy
Creciente
Sep 2
Cuarto creciente
Sep 8
Luna llena
Sep 15
Cuarto menguante
Sep 24
Nueva

Extremos de hoy

Máximos del estado Bajos del estado

Community

WunderPhotos

Upload Photos

1,749,154 ¡fotos cargadas!

Nearby

Grosos de nieve

Estación Profundido Altura
Moses Mountain 1 in 5300 ft
Rainy Pass 0 in 4780 ft
Lyman Lake 1 in 5900 ft
Harts Pass 0 in 6500 ft
Stevens Pass 0 in 4070 ft

Actividad de terremotos

Ciudad Distance Mag. Tiempo y dato
No hay informes recientes de la actividad sísmica.
Magnitud mínima muestra es 2,5.

Temperaturas de aguas costeras

Lugar Temperatura
Sin partes meteorológicos de las estaciones

Estaciones meteorológicas cercanas